Ellisburg, Pennsylvania
Current Conditions -  °F | °C
As of 3:56 AM on Saturday 25 Oct 2014 (Local Time) from KELZ Reporting Station
Few Clouds Few Clouds  
Wind Chill: 41°   Ceiling: Unl
Heat Index: 44°   Visibility: 10mi
Dew Point: 36°   Wind: 6mph
Humidity: 73%   Direction: 260°W
Pressure: 29.92"   Gusts: NA
Location:  41.915°N, 77.8855°W
Report Text: KELZ 250756Z AUTO 26005KT 10SM FEW044 07/02 A2992 RMK AO2 SLP135 T00670022
Loading
Personal Weather Stations






























Interactive Weather Map New forecast layout! Learn more

10-Day Weather Forecast

Advertisements
Track Severe Weather on mobile